createdAt,value
2018-05-05T00:01:30.032Z,6.90
2018-05-05T00:03:57.986Z,6.90
2018-05-05T00:06:25.893Z,6.90
2018-05-05T00:08:54.604Z,6.90
2018-05-05T00:11:22.492Z,6.90
2018-05-05T00:13:50.459Z,6.80
2018-05-05T00:16:18.347Z,6.70
2018-05-05T00:18:46.302Z,6.70
2018-05-05T00:21:14.207Z,6.60
2018-05-05T00:23:42.179Z,6.60
2018-05-05T00:26:10.077Z,6.60
2018-05-05T00:28:37.988Z,6.50
2018-05-05T00:31:05.965Z,6.50
2018-05-05T00:33:33.891Z,6.60
2018-05-05T00:36:01.862Z,6.50
2018-05-05T00:38:29.756Z,6.60
2018-05-05T00:40:57.751Z,6.50
2018-05-05T00:43:25.675Z,6.40
2018-05-05T00:45:53.614Z,6.40
2018-05-05T00:48:21.511Z,6.30
2018-05-05T00:50:49.460Z,6.30
2018-05-05T00:53:18.118Z,6.20
2018-05-05T00:55:46.067Z,6.20
2018-05-05T00:58:13.972Z,6.20
2018-05-05T01:00:41.929Z,6.20
2018-05-05T01:03:09.827Z,6.20
2018-05-05T01:05:37.780Z,6.10
2018-05-05T01:08:05.683Z,6.00
2018-05-05T01:10:33.642Z,6.00
2018-05-05T01:13:01.540Z,6.10
2018-05-05T01:15:29.500Z,6.00
2018-05-05T01:17:57.384Z,6.00
2018-05-05T01:20:25.346Z,6.00
2018-05-05T01:22:53.240Z,6.00
2018-05-05T01:25:27.573Z,6.00
2018-05-05T01:27:55.463Z,5.90
2018-05-05T01:30:23.367Z,5.90
2018-05-05T01:32:51.322Z,5.80
2018-05-05T01:35:19.214Z,5.80
2018-05-05T01:37:47.194Z,5.80
2018-05-05T01:40:15.097Z,5.70
2018-05-05T01:42:43.050Z,5.60
2018-05-05T01:45:10.963Z,5.70
2018-05-05T01:47:38.941Z,5.50
2018-05-05T01:50:06.838Z,5.40
2018-05-05T01:52:34.789Z,5.40
2018-05-05T01:55:02.671Z,5.40
2018-05-05T01:57:30.633Z,5.30
2018-05-05T01:59:58.537Z,5.20
2018-05-05T02:02:26.489Z,5.20
2018-05-05T02:04:54.377Z,5.30
2018-05-05T02:07:22.335Z,5.30
2018-05-05T02:09:50.215Z,5.20
2018-05-05T02:12:18.105Z,5.10
2018-05-05T02:14:46.829Z,5.20
2018-05-05T02:17:14.723Z,5.20
2018-05-05T02:19:42.738Z,5.20
2018-05-05T02:22:11.392Z,5.00
2018-05-05T02:24:39.342Z,5.00
2018-05-05T02:27:07.287Z,4.90
2018-05-05T02:29:35.242Z,4.90
2018-05-05T02:32:03.932Z,4.90
2018-05-05T02:34:32.674Z,4.80
2018-05-05T02:37:00.568Z,4.80
2018-05-05T02:39:28.526Z,4.80
2018-05-05T02:41:56.416Z,4.60
2018-05-05T02:44:25.157Z,4.50
2018-05-05T02:46:53.058Z,4.50
2018-05-05T02:49:21.010Z,4.60
2018-05-05T02:51:48.923Z,4.60
2018-05-05T02:54:17.594Z,4.70
2018-05-05T02:56:46.315Z,4.70
2018-05-05T02:59:14.215Z,4.60
2018-05-05T03:01:42.169Z,4.60
2018-05-05T03:04:10.050Z,4.80
2018-05-05T03:06:37.977Z,4.70
2018-05-05T03:09:06.655Z,4.80
2018-05-05T03:11:34.705Z,4.70
2018-05-05T03:14:02.538Z,4.70
2018-05-05T03:16:30.476Z,4.60
2018-05-05T03:18:58.370Z,4.60
2018-05-05T03:21:26.325Z,4.70
2018-05-05T03:23:54.309Z,4.70
2018-05-05T03:26:22.262Z,4.60
2018-05-05T03:28:50.142Z,4.70
2018-05-05T03:31:18.099Z,4.60
2018-05-05T03:33:45.997Z,4.60
2018-05-05T03:36:13.934Z,4.60
2018-05-05T03:38:41.810Z,4.60
2018-05-05T03:41:09.756Z,4.60
2018-05-05T03:43:38.419Z,4.30
2018-05-05T03:46:06.365Z,4.30
2018-05-05T03:48:35.208Z,4.30
2018-05-05T03:51:03.938Z,4.40
2018-05-05T03:53:31.825Z,4.30
2018-05-05T03:55:59.770Z,4.40
2018-05-05T03:58:27.715Z,4.40
2018-05-05T04:01:07.356Z,4.40
2018-05-05T04:03:46.877Z,4.30
2018-05-05T04:06:15.549Z,4.30
2018-05-05T04:08:43.488Z,4.30
2018-05-05T04:11:11.381Z,4.50
2018-05-05T04:13:39.324Z,4.50
2018-05-05T04:16:07.227Z,4.40
2018-05-05T04:18:35.163Z,4.40
2018-05-05T04:21:03.033Z,4.40
2018-05-05T04:23:30.956Z,4.50
2018-05-05T04:25:58.880Z,4.40
2018-05-05T04:28:26.821Z,4.50
2018-05-05T04:30:54.702Z,4.60
2018-05-05T04:33:22.651Z,4.70
2018-05-05T04:35:50.526Z,4.70
2018-05-05T04:38:18.423Z,4.70
2018-05-05T04:40:46.364Z,4.70
2018-05-05T04:43:14.297Z,4.80
2018-05-05T04:45:43.010Z,4.80
2018-05-05T04:48:10.896Z,4.80
2018-05-05T04:50:38.842Z,4.70
2018-05-05T04:53:06.740Z,4.80
2018-05-05T04:55:34.689Z,5.00
2018-05-05T04:58:02.606Z,5.10
2018-05-05T05:00:30.541Z,5.30
2018-05-05T05:02:58.429Z,5.30
2018-05-05T05:05:26.385Z,5.40
2018-05-05T05:07:54.328Z,5.70
2018-05-05T05:10:22.320Z,5.80
2018-05-05T05:12:50.208Z,5.70
2018-05-05T05:15:18.177Z,5.80
2018-05-05T05:17:46.061Z,5.90
2018-05-05T05:20:14.000Z,6.60
2018-05-05T05:22:41.878Z,8.00
2018-05-05T05:25:09.825Z,9.70
2018-05-05T05:27:37.716Z,11.20
2018-05-05T05:30:05.678Z,12.50
2018-05-05T05:32:33.562Z,13.60
2018-05-05T05:35:01.531Z,14.60
2018-05-05T05:37:29.481Z,15.10
2018-05-05T05:39:57.855Z,15.60
2018-05-05T05:42:29.221Z,16.50
2018-05-05T05:45:01.332Z,17.90
2018-05-05T05:47:29.367Z,17.90
2018-05-05T05:49:57.254Z,18.40
2018-05-05T05:52:25.216Z,18.70
2018-05-05T05:54:53.100Z,19.10
2018-05-05T05:57:21.110Z,19.60
2018-05-05T05:59:49.091Z,19.90
2018-05-05T06:02:19.274Z,20.40
2018-05-05T06:04:49.689Z,21.10
2018-05-05T06:07:20.411Z,21.60
2018-05-05T06:09:49.475Z,21.50
2018-05-05T06:12:19.458Z,22.20
2018-05-05T06:14:48.491Z,22.20
2018-05-05T06:17:17.827Z,22.20
2018-05-05T06:19:48.488Z,22.90
2018-05-05T06:22:16.648Z,23.40
2018-05-05T06:24:45.661Z,20.90
2018-05-05T06:27:14.922Z,21.70
2018-05-05T06:29:43.992Z,22.20
2018-05-05T06:32:12.039Z,22.90
2018-05-05T06:34:41.659Z,24.00
2018-05-05T06:37:11.905Z,24.70
2018-05-05T06:39:43.428Z,24.70
2018-05-05T06:42:11.526Z,25.60
2018-05-05T06:44:40.731Z,26.30
2018-05-05T06:47:11.334Z,26.40
2018-05-05T06:49:40.570Z,26.00
2018-05-05T06:52:09.312Z,26.80
2018-05-05T06:54:38.030Z,27.50
2018-05-05T06:57:06.018Z,27.50
2018-05-05T06:59:33.990Z,26.20
2018-05-05T07:02:04.899Z,24.50
2018-05-05T07:04:35.477Z,24.20
2018-05-05T07:07:05.618Z,23.20
2018-05-05T07:09:36.819Z,24.30
2018-05-05T07:12:07.737Z,24.30
2018-05-05T07:14:38.910Z,24.70
2018-05-05T07:17:07.032Z,24.40
2018-05-05T07:19:34.982Z,22.90
2018-05-05T07:22:02.881Z,22.30
2018-05-05T07:24:31.542Z,22.70
2018-05-05T07:26:59.495Z,22.60
2018-05-05T07:29:27.391Z,23.50
2018-05-05T07:31:55.324Z,24.00
2018-05-05T07:34:23.304Z,24.90
2018-05-05T07:36:53.877Z,25.60
2018-05-05T07:39:22.577Z,26.90
2018-05-05T07:41:50.535Z,26.80
2018-05-05T07:44:19.192Z,26.30
2018-05-05T07:46:47.141Z,26.30
2018-05-05T07:49:17.874Z,26.70
2018-05-05T07:51:48.336Z,26.90
2018-05-05T07:54:19.343Z,27.20
2018-05-05T07:56:47.557Z,27.50
2018-05-05T07:59:15.547Z,27.30
2018-05-05T08:01:43.516Z,27.90
2018-05-05T08:04:12.216Z,28.30
2018-05-05T08:06:40.190Z,28.30
2018-05-05T08:09:08.070Z,28.70
2018-05-05T08:11:36.025Z,28.60
2018-05-05T08:14:03.924Z,27.10
2018-05-05T08:16:31.903Z,26.90
2018-05-05T08:18:59.810Z,27.60
2018-05-05T08:21:28.523Z,27.20
2018-05-05T08:23:56.412Z,27.20
2018-05-05T08:26:24.302Z,27.60
2018-05-05T08:28:52.253Z,28.00
2018-05-05T08:31:20.162Z,28.20
2018-05-05T08:33:48.115Z,28.40
2018-05-05T08:36:16.011Z,28.30
2018-05-05T08:38:44.737Z,28.00
2018-05-05T08:41:12.650Z,27.90
2018-05-05T08:43:40.608Z,28.60
2018-05-05T08:46:08.505Z,28.70
2018-05-05T08:48:36.463Z,28.90
2018-05-05T08:51:04.359Z,29.70
2018-05-05T08:53:33.080Z,28.70
2018-05-05T08:56:00.980Z,28.70
2018-05-05T08:58:28.933Z,29.30
2018-05-05T09:00:56.829Z,29.20
2018-05-05T09:03:24.778Z,29.40
2018-05-05T09:05:52.727Z,30.10
2018-05-05T09:08:20.664Z,30.60
2018-05-05T09:10:49.317Z,30.00
2018-05-05T09:13:17.265Z,29.90
2018-05-05T09:15:45.160Z,29.50
2018-05-05T09:18:13.123Z,28.90
2018-05-05T09:20:41.036Z,29.00
2018-05-05T09:23:08.947Z,29.00
2018-05-05T09:25:36.892Z,28.90
2018-05-05T09:28:04.800Z,29.50
2018-05-05T09:30:32.752Z,30.30
2018-05-05T09:33:03.103Z,30.40
2018-05-05T09:35:33.377Z,30.70
2018-05-05T09:38:05.860Z,30.80
2018-05-05T09:40:37.837Z,30.20
2018-05-05T09:43:07.193Z,30.20
2018-05-05T09:45:37.551Z,30.20
2018-05-05T09:48:05.592Z,30.30
2018-05-05T09:50:34.305Z,30.20
2018-05-05T09:53:02.212Z,30.20
2018-05-05T09:55:30.208Z,30.10
2018-05-05T09:58:00.864Z,31.00
2018-05-05T10:00:28.967Z,30.80
2018-05-05T10:02:56.880Z,30.70
2018-05-05T10:05:30.603Z,31.30
2018-05-05T10:07:58.493Z,31.20
2018-05-05T10:10:26.460Z,31.30
2018-05-05T10:12:54.353Z,30.90
2018-05-05T10:15:22.293Z,30.50
2018-05-05T10:17:50.203Z,31.20
2018-05-05T10:20:18.166Z,31.10
2018-05-05T10:22:46.111Z,30.80
2018-05-05T10:25:14.321Z,31.10
2018-05-05T10:27:42.213Z,31.30
2018-05-05T10:30:10.099Z,30.70
2018-05-05T10:32:38.810Z,30.70
2018-05-05T10:35:06.722Z,30.60
2018-05-05T10:37:34.705Z,31.40
2018-05-05T10:40:02.609Z,31.80
2018-05-05T10:42:30.609Z,31.20
2018-05-05T10:44:58.561Z,31.30
2018-05-05T10:47:26.504Z,31.70
2018-05-05T10:49:55.170Z,32.50
2018-05-05T10:52:23.129Z,32.40
2018-05-05T10:54:51.020Z,32.50
2018-05-05T10:57:23.978Z,31.30
2018-05-05T10:59:51.929Z,30.90
2018-05-05T11:02:19.891Z,30.80
2018-05-05T11:04:47.807Z,30.80
2018-05-05T11:07:15.797Z,30.20
2018-05-05T11:09:44.456Z,30.70
2018-05-05T11:12:12.408Z,30.70
2018-05-05T11:14:40.290Z,30.70
2018-05-05T11:17:08.248Z,31.20
2018-05-05T11:19:36.169Z,31.50
2018-05-05T11:22:04.090Z,31.50
2018-05-05T11:24:32.061Z,30.50
2018-05-05T11:26:59.960Z,30.80
2018-05-05T11:29:28.702Z,30.50
2018-05-05T11:31:56.602Z,30.50
2018-05-05T11:34:24.629Z,30.70
2018-05-05T11:36:52.615Z,29.00
2018-05-05T11:39:20.545Z,29.40
2018-05-05T11:41:49.202Z,30.10
2018-05-05T11:44:17.263Z,30.10
2018-05-05T11:46:45.214Z,30.10
2018-05-05T11:49:13.297Z,30.30
2018-05-05T11:51:41.189Z,30.90
2018-05-05T11:54:09.132Z,31.30
2018-05-05T11:56:37.892Z,31.60
2018-05-05T11:59:05.832Z,31.30
2018-05-05T12:01:35.701Z,30.20
2018-05-05T12:04:03.652Z,30.20
2018-05-05T12:06:31.541Z,30.70
2018-05-05T12:08:59.477Z,31.00
2018-05-05T12:11:27.383Z,31.20
2018-05-05T12:13:55.333Z,31.40
2018-05-05T12:16:23.231Z,31.60
2018-05-05T12:18:51.124Z,31.70
2018-05-05T12:21:19.101Z,31.50
2018-05-05T12:23:47.771Z,31.00
2018-05-05T12:26:15.730Z,31.00
2018-05-05T12:28:43.644Z,29.40
2018-05-05T12:31:11.599Z,29.10
2018-05-05T12:33:40.260Z,29.10
2018-05-05T12:36:08.218Z,29.10
2018-05-05T12:38:36.098Z,28.50
2018-05-05T12:41:04.105Z,28.40
2018-05-05T12:43:31.979Z,28.90
2018-05-05T12:45:59.913Z,28.60
2018-05-05T12:48:27.805Z,28.70
2018-05-05T12:50:56.505Z,29.40
2018-05-05T12:53:24.401Z,29.40
2018-05-05T12:55:53.098Z,29.10
2018-05-05T12:58:20.982Z,29.10
2018-05-05T13:00:48.937Z,28.40
2018-05-05T13:03:16.825Z,27.90
2018-05-05T13:05:44.866Z,28.00
2018-05-05T13:08:12.778Z,27.50
2018-05-05T13:10:41.515Z,27.20
2018-05-05T13:13:09.403Z,27.20
2018-05-05T13:15:37.280Z,26.70
2018-05-05T13:18:05.257Z,26.80
2018-05-05T13:20:33.158Z,26.90
2018-05-05T13:23:01.877Z,27.10
2018-05-05T13:25:29.775Z,27.10
2018-05-05T13:28:01.492Z,26.80
2018-05-05T13:30:29.400Z,27.00
2018-05-05T13:32:57.340Z,27.00
2018-05-05T13:35:26.982Z,26.60
2018-05-05T13:37:56.856Z,26.20
2018-05-05T13:40:24.788Z,26.20
2018-05-05T13:42:52.730Z,26.30
2018-05-05T13:45:20.643Z,25.90
2018-05-05T13:47:49.366Z,25.90
2018-05-05T13:50:17.269Z,25.90
2018-05-05T13:52:45.224Z,26.00
2018-05-05T13:55:13.122Z,26.20
2018-05-05T13:57:41.861Z,25.90
2018-05-05T14:00:09.784Z,25.90
2018-05-05T14:02:37.695Z,26.00
2018-05-05T14:05:06.415Z,25.60
2018-05-05T14:07:34.317Z,25.60
2018-05-05T14:10:03.085Z,25.30
2018-05-05T14:12:31.028Z,25.30
2018-05-05T14:14:59.031Z,25.50
2018-05-05T14:17:26.993Z,25.50
2018-05-05T14:19:54.997Z,25.20
2018-05-05T14:22:23.652Z,25.30
2018-05-05T14:24:51.605Z,25.20
2018-05-05T14:27:19.489Z,25.10
2018-05-05T14:29:47.458Z,24.80
2018-05-05T14:32:15.357Z,24.90
2018-05-05T14:34:44.097Z,24.90
2018-05-05T14:37:12.400Z,24.80
2018-05-05T14:39:41.967Z,24.60
2018-05-05T14:42:09.870Z,24.40
2018-05-05T14:44:37.823Z,24.50
2018-05-05T14:47:05.732Z,24.60
2018-05-05T14:49:34.507Z,24.60
2018-05-05T14:52:02.404Z,24.60
2018-05-05T14:54:31.140Z,24.50
2018-05-05T14:56:59.024Z,24.50
2018-05-05T14:59:26.994Z,24.50
2018-05-05T15:01:54.888Z,24.30
2018-05-05T15:04:23.595Z,24.30
2018-05-05T15:06:51.537Z,24.30
2018-05-05T15:09:19.460Z,24.20
2018-05-05T15:11:47.413Z,24.10
2018-05-05T15:14:15.292Z,24.20
2018-05-05T15:16:43.268Z,24.20
2018-05-05T15:19:11.148Z,24.20
2018-05-05T15:21:39.092Z,24.20
2018-05-05T15:24:06.989Z,24.10
2018-05-05T15:26:34.924Z,24.10
2018-05-05T15:29:02.847Z,23.90
2018-05-05T15:31:30.797Z,23.90
2018-05-05T15:33:58.756Z,23.90
2018-05-05T15:36:26.689Z,23.90
2018-05-05T15:38:55.364Z,23.90
2018-05-05T15:41:24.128Z,23.90
2018-05-05T15:43:52.024Z,23.80
2018-05-05T15:46:20.724Z,23.80
2018-05-05T15:48:49.432Z,23.70
2018-05-05T15:51:17.425Z,23.70
2018-05-05T15:53:45.342Z,23.70
2018-05-05T15:56:14.046Z,23.60
2018-05-05T15:58:43.170Z,23.60
2018-05-05T16:01:15.064Z,23.50
2018-05-05T16:03:46.224Z,23.40
2018-05-05T16:06:14.328Z,23.40
2018-05-05T16:08:42.212Z,23.30
2018-05-05T16:11:10.142Z,23.20
2018-05-05T16:13:38.861Z,23.20
2018-05-05T16:16:06.789Z,23.20
2018-05-05T16:18:34.734Z,23.20
2018-05-05T16:21:02.624Z,23.20
2018-05-05T16:23:30.574Z,23.20
2018-05-05T16:25:58.464Z,23.10
2018-05-05T16:28:26.409Z,23.00
2018-05-05T16:30:54.350Z,23.00
2018-05-05T16:33:22.295Z,23.00
2018-05-05T16:35:50.948Z,22.90
2018-05-05T16:38:19.009Z,22.90
2018-05-05T16:40:46.888Z,22.90
2018-05-05T16:43:14.856Z,22.90
2018-05-05T16:45:42.792Z,22.80
2018-05-05T16:48:10.756Z,22.80
2018-05-05T16:50:38.653Z,22.80
2018-05-05T16:53:06.602Z,22.80
2018-05-05T16:55:34.503Z,22.70
2018-05-05T16:58:02.462Z,22.70
2018-05-05T17:00:30.368Z,22.60
2018-05-05T17:02:59.065Z,22.50
2018-05-05T17:05:27.046Z,22.50
2018-05-05T17:07:54.944Z,22.50
2018-05-05T17:10:22.892Z,22.40
2018-05-05T17:12:50.772Z,22.30
2018-05-05T17:15:18.718Z,22.20
2018-05-05T17:17:46.607Z,22.20
2018-05-05T17:20:14.565Z,22.10
2018-05-05T17:22:42.502Z,22.00
2018-05-05T17:25:10.705Z,21.90
2018-05-05T17:27:38.640Z,21.90
2018-05-05T17:30:06.610Z,21.80
2018-05-05T17:32:34.510Z,21.70
2018-05-05T17:35:02.482Z,21.60
2018-05-05T17:37:30.384Z,21.60
2018-05-05T17:39:58.345Z,21.60
2018-05-05T17:42:26.228Z,21.50
2018-05-05T17:44:54.176Z,21.40
2018-05-05T17:47:22.295Z,21.30
2018-05-05T17:49:50.238Z,21.20
2018-05-05T17:52:18.131Z,21.10
2018-05-05T17:54:46.124Z,21.00
2018-05-05T17:57:14.779Z,20.90
2018-05-05T17:59:42.741Z,20.90
2018-05-05T18:02:10.682Z,20.80
2018-05-05T18:04:38.566Z,20.60
2018-05-05T18:07:06.510Z,20.60
2018-05-05T18:09:34.388Z,20.50
2018-05-05T18:12:02.345Z,20.30
2018-05-05T18:14:30.246Z,20.10
2018-05-05T18:16:58.230Z,19.90
2018-05-05T18:19:26.129Z,19.60
2018-05-05T18:21:55.053Z,19.30
2018-05-05T18:24:22.938Z,19.00
2018-05-05T18:26:50.883Z,18.80
2018-05-05T18:29:18.825Z,18.50
2018-05-05T18:31:46.782Z,18.20
2018-05-05T18:34:14.694Z,18.00
2018-05-05T18:36:42.646Z,17.70
2018-05-05T18:39:11.306Z,17.30
2018-05-05T18:41:39.433Z,17.30
2018-05-05T18:44:10.146Z,17.00
2018-05-05T18:46:43.429Z,16.70
2018-05-05T18:49:13.617Z,16.50
2018-05-05T18:51:42.606Z,16.20
2018-05-05T18:54:10.513Z,16.10
2018-05-05T18:56:39.459Z,16.00
2018-05-05T18:59:07.345Z,15.90
2018-05-05T19:01:35.328Z,15.80
2018-05-05T19:04:03.273Z,15.60
2018-05-05T19:06:32.484Z,15.50
2018-05-05T19:09:00.392Z,15.40
2018-05-05T19:11:29.979Z,15.20
2018-05-05T19:13:57.912Z,15.20
2018-05-05T19:16:25.821Z,15.10
2018-05-05T19:18:53.817Z,15.00
2018-05-05T19:21:22.473Z,14.80
2018-05-05T19:23:50.421Z,14.80
2018-05-05T19:26:18.302Z,14.70
2018-05-05T19:28:46.247Z,14.60
2018-05-05T19:31:14.897Z,14.30
2018-05-05T19:33:42.978Z,14.30
2018-05-05T19:36:11.132Z,14.20
2018-05-05T19:38:40.243Z,14.00
2018-05-05T19:41:08.910Z,13.90
2018-05-05T19:43:36.859Z,13.90
2018-05-05T19:46:04.770Z,13.80
2018-05-05T19:48:32.732Z,13.70
2018-05-05T19:51:01.418Z,13.50
2018-05-05T19:53:30.151Z,13.40
2018-05-05T19:55:58.068Z,13.40
2018-05-05T19:58:26.805Z,13.30
2018-05-05T20:00:54.705Z,13.30
2018-05-05T20:03:22.661Z,13.30
2018-05-05T20:05:50.641Z,13.20
2018-05-05T20:08:18.611Z,13.20
2018-05-05T20:10:46.635Z,13.00
2018-05-05T20:13:14.563Z,12.90
2018-05-05T20:15:42.523Z,12.80
2018-05-05T20:18:10.428Z,12.70
2018-05-05T20:20:39.131Z,12.60
2018-05-05T20:23:07.068Z,12.50
2018-05-05T20:25:35.883Z,12.40
2018-05-05T20:28:03.920Z,12.40
2018-05-05T20:30:31.921Z,12.40
2018-05-05T20:32:59.830Z,12.30
2018-05-05T20:35:27.782Z,12.20
2018-05-05T20:37:56.873Z,11.90
2018-05-05T20:40:24.854Z,11.90
2018-05-05T20:42:54.466Z,11.80
2018-05-05T20:45:22.430Z,11.70
2018-05-05T20:47:52.631Z,11.70
2018-05-05T20:50:20.630Z,11.70
2018-05-05T20:52:48.537Z,11.60
2018-05-05T20:55:16.511Z,11.60
2018-05-05T20:57:44.417Z,11.50
2018-05-05T21:00:12.348Z,11.40
2018-05-05T21:02:40.320Z,11.30
2018-05-05T21:05:08.230Z,11.30
2018-05-05T21:07:36.249Z,11.20
2018-05-05T21:10:04.490Z,11.10
2018-05-05T21:12:32.465Z,11.10
2018-05-05T21:15:00.373Z,11.00
2018-05-05T21:17:29.097Z,10.90
2018-05-05T21:19:57.005Z,10.80
2018-05-05T21:22:24.962Z,10.80
2018-05-05T21:24:52.857Z,10.80
2018-05-05T21:27:20.815Z,10.70
2018-05-05T21:29:48.735Z,10.70
2018-05-05T21:32:17.469Z,10.70
2018-05-05T21:34:45.374Z,10.70
2018-05-05T21:37:14.095Z,10.60
2018-05-05T21:39:42.036Z,10.60
2018-05-05T21:42:10.765Z,10.40
2018-05-05T21:44:41.579Z,10.40
2018-05-05T21:47:10.501Z,10.30
2018-05-05T21:49:38.383Z,10.30
2018-05-05T21:52:09.967Z,10.30
2018-05-05T21:54:41.856Z,10.10
2018-05-05T21:57:12.480Z,10.00
2018-05-05T21:59:43.531Z,10.00
2018-05-05T22:02:11.611Z,10.00
2018-05-05T22:04:41.187Z,10.10
2018-05-05T22:07:09.873Z,10.10
2018-05-05T22:09:40.853Z,10.00
2018-05-05T22:12:12.599Z,10.00
2018-05-05T22:14:43.012Z,10.00
2018-05-05T22:17:11.731Z,9.90
2018-05-05T22:19:39.686Z,10.00
2018-05-05T22:22:07.587Z,9.90
2018-05-05T22:24:35.543Z,9.80
2018-05-05T22:27:03.444Z,9.70
2018-05-05T22:29:31.383Z,9.60
2018-05-05T22:31:59.274Z,9.50
2018-05-05T22:34:27.230Z,9.40
2018-05-05T22:36:55.127Z,9.40
2018-05-05T22:39:23.063Z,9.50
2018-05-05T22:41:50.951Z,9.40
2018-05-05T22:44:18.889Z,9.20
2018-05-05T22:46:46.804Z,9.30
2018-05-05T22:49:14.763Z,9.30
2018-05-05T22:51:42.648Z,9.30
2018-05-05T22:54:10.590Z,9.30
2018-05-05T22:56:38.496Z,9.30
2018-05-05T22:59:06.445Z,9.30
2018-05-05T23:01:34.354Z,9.30
2018-05-05T23:04:03.076Z,9.10
2018-05-05T23:06:30.974Z,9.10
2018-05-05T23:08:58.952Z,9.20
2018-05-05T23:11:26.854Z,9.20
2018-05-05T23:13:55.594Z,9.10
2018-05-05T23:16:23.509Z,9.10
2018-05-05T23:18:52.235Z,9.00
2018-05-05T23:21:20.169Z,9.00
2018-05-05T23:23:48.819Z,8.80
2018-05-05T23:26:16.756Z,8.80
2018-05-05T23:28:44.660Z,8.80
2018-05-05T23:31:12.657Z,8.80
2018-05-05T23:33:41.328Z,8.80
2018-05-05T23:36:09.276Z,8.80
2018-05-05T23:38:37.163Z,8.80
2018-05-05T23:41:05.114Z,8.80
2018-05-05T23:43:32.993Z,8.80
2018-05-05T23:46:00.930Z,8.80
2018-05-05T23:48:29.582Z,8.60
2018-05-05T23:50:58.310Z,8.50
2018-05-05T23:53:26.216Z,8.50
2018-05-05T23:55:54.207Z,8.50
2018-05-05T23:58:22.853Z,8.30
